Terminal Aerodrome Forecast
Issued by NWS

Home | Current Version | Previous Version | Text Only | Print | Product List | Glossary On
Versions: 1 2 3 4 5 6 7 8 9 10 11 12 13 14
000
FTUS44 KJAN 210549 RRA
TAFGTR
TAF
KGTR 210549Z 2106/2206 17006KT P6SM SCT250
     FM211000 17004KT 5SM TSRA BR BKN090CB OVC130
     FM211400 11008KT 6SM BR BKN050 BKN090
     FM211600 13008KT P6SM BKN050 BKN090
     FM212000 18009KT P6SM BKN025 BKN250
     FM220200 15006KT P6SM SHRA VCTS BKN003CB OVC130=

USA.gov is the U.S. government's official web portal to all federal, state and local government web resources and services.